sensor_id;sensor_type;location;lat;lon;timestamp;temperature;humidity
24011;DHT22;12217;50.792;4.372;2023-02-26T00:00:09;6.30;99.90
24011;DHT22;12217;50.792;4.372;2023-02-26T00:02:42;6.30;99.90
24011;DHT22;12217;50.792;4.372;2023-02-26T00:05:11;6.30;99.90
24011;DHT22;12217;50.792;4.372;2023-02-26T00:07:37;6.30;99.90
24011;DHT22;12217;50.792;4.372;2023-02-26T00:10:05;6.20;99.90
24011;DHT22;12217;50.792;4.372;2023-02-26T00:12:31;6.20;99.90
24011;DHT22;12217;50.792;4.372;2023-02-26T00:14:57;6.20;99.90
24011;DHT22;12217;50.792;4.372;2023-02-26T00:19:51;6.20;99.90
24011;DHT22;12217;50.792;4.372;2023-02-26T00:22:17;6.20;99.90
24011;DHT22;12217;50.792;4.372;2023-02-26T00:24:43;6.20;99.90
24011;DHT22;12217;50.792;4.372;2023-02-26T00:27:10;6.10;99.90
24011;DHT22;12217;50.792;4.372;2023-02-26T00:29:36;6.10;99.90
24011;DHT22;12217;50.792;4.372;2023-02-26T00:32:02;6.10;99.90
24011;DHT22;12217;50.792;4.372;2023-02-26T00:34:28;6.10;99.90
24011;DHT22;12217;50.792;4.372;2023-02-26T00:37:15;6.10;99.90
24011;DHT22;12217;50.792;4.372;2023-02-26T00:40:04;6.10;99.90
24011;DHT22;12217;50.792;4.372;2023-02-26T00:42:35;6.00;99.90
24011;DHT22;12217;50.792;4.372;2023-02-26T00:45:01;6.10;99.90
24011;DHT22;12217;50.792;4.372;2023-02-26T00:47:36;5.80;99.90
24011;DHT22;12217;50.792;4.372;2023-02-26T00:53:03;6.00;99.90
24011;DHT22;12217;50.792;4.372;2023-02-26T00:55:32;6.00;99.90
24011;DHT22;12217;50.792;4.372;2023-02-26T00:57:58;6.00;99.90
24011;DHT22;12217;50.792;4.372;2023-02-26T01:00:24;6.00;99.90
24011;DHT22;12217;50.792;4.372;2023-02-26T01:02:50;6.00;99.90
24011;DHT22;12217;50.792;4.372;2023-02-26T01:05:16;5.90;99.90
24011;DHT22;12217;50.792;4.372;2023-02-26T01:08:02;5.90;99.90
24011;DHT22;12217;50.792;4.372;2023-02-26T01:10:30;6.00;99.90
24011;DHT22;12217;50.792;4.372;2023-02-26T01:12:56;6.00;99.90
24011;DHT22;12217;50.792;4.372;2023-02-26T01:15:23;6.00;99.90
24011;DHT22;12217;50.792;4.372;2023-02-26T01:20:31;5.70;99.90
24011;DHT22;12217;50.792;4.372;2023-02-26T01:23:03;5.70;99.90
24011;DHT22;12217;50.792;4.372;2023-02-26T01:25:49;5.80;99.90
24011;DHT22;12217;50.792;4.372;2023-02-26T01:28:15;5.90;99.90
24011;DHT22;12217;50.792;4.372;2023-02-26T01:30:42;5.80;99.90
24011;DHT22;12217;50.792;4.372;2023-02-26T01:36:16;5.80;99.90
24011;DHT22;12217;50.792;4.372;2023-02-26T01:49:19;5.70;99.90
24011;DHT22;12217;50.792;4.372;2023-02-26T01:51:49;5.60;99.90
24011;DHT22;12217;50.792;4.372;2023-02-26T01:54:22;5.50;99.90
24011;DHT22;12217;50.792;4.372;2023-02-26T01:56:56;5.50;99.90
24011;DHT22;12217;50.792;4.372;2023-02-26T01:59:23;5.50;99.90
24011;DHT22;12217;50.792;4.372;2023-02-26T02:01:55;5.60;99.90
24011;DHT22;12217;50.792;4.372;2023-02-26T02:04:23;5.70;99.90
24011;DHT22;12217;50.792;4.372;2023-02-26T02:06:49;5.70;99.90
24011;DHT22;12217;50.792;4.372;2023-02-26T02:09:14;5.70;99.90
24011;DHT22;12217;50.792;4.372;2023-02-26T02:14:53;5.70;99.90
24011;DHT22;12217;50.792;4.372;2023-02-26T02:33:35;5.50;99.90
24011;DHT22;12217;50.792;4.372;2023-02-26T02:36:14;5.40;99.90
24011;DHT22;12217;50.792;4.372;2023-02-26T02:38:56;5.40;99.90
24011;DHT22;12217;50.792;4.372;2023-02-26T02:41:30;5.40;99.90
24011;DHT22;12217;50.792;4.372;2023-02-26T02:44:00;5.50;99.90
24011;DHT22;12217;50.792;4.372;2023-02-26T02:46:29;5.50;99.90
24011;DHT22;12217;50.792;4.372;2023-02-26T02:49:12;5.30;99.90
24011;DHT22;12217;50.792;4.372;2023-02-26T02:51:51;5.30;99.90
24011;DHT22;12217;50.792;4.372;2023-02-26T02:54:23;5.30;99.90
24011;DHT22;12217;50.792;4.372;2023-02-26T02:56:58;5.30;99.90
24011;DHT22;12217;50.792;4.372;2023-02-26T02:59:51;5.30;99.90
24011;DHT22;12217;50.792;4.372;2023-02-26T03:02:27;5.30;99.90
24011;DHT22;12217;50.792;4.372;2023-02-26T03:04:55;5.30;99.90
24011;DHT22;12217;50.792;4.372;2023-02-26T03:07:21;5.30;99.90
24011;DHT22;12217;50.792;4.372;2023-02-26T03:09:47;5.30;99.90
24011;DHT22;12217;50.792;4.372;2023-02-26T03:12:13;5.30;99.90
24011;DHT22;12217;50.792;4.372;2023-02-26T03:14:39;5.20;99.90
24011;DHT22;12217;50.792;4.372;2023-02-26T03:20:02;5.10;99.90
24011;DHT22;12217;50.792;4.372;2023-02-26T03:22:55;5.20;99.90
24011;DHT22;12217;50.792;4.372;2023-02-26T03:25:48;5.30;99.90
24011;DHT22;12217;50.792;4.372;2023-02-26T03:34:06;5.30;99.90
24011;DHT22;12217;50.792;4.372;2023-02-26T03:39:23;5.10;99.90
24011;DHT22;12217;50.792;4.372;2023-02-26T03:44:39;5.20;99.90
24011;DHT22;12217;50.792;4.372;2023-02-26T03:47:11;5.30;99.90
24011;DHT22;12217;50.792;4.372;2023-02-26T03:49:54;5.20;99.90
24011;DHT22;12217;50.792;4.372;2023-02-26T03:52:23;5.20;99.90
24011;DHT22;12217;50.792;4.372;2023-02-26T03:54:56;5.20;99.90
24011;DHT22;12217;50.792;4.372;2023-02-26T03:57:23;5.10;99.90
24011;DHT22;12217;50.792;4.372;2023-02-26T03:59:49;5.10;99.90
24011;DHT22;12217;50.792;4.372;2023-02-26T04:02:28;5.10;99.90
24011;DHT22;12217;50.792;4.372;2023-02-26T04:05:02;5.20;99.90
24011;DHT22;12217;50.792;4.372;2023-02-26T04:07:29;5.10;99.90
24011;DHT22;12217;50.792;4.372;2023-02-26T04:09:55;5.00;99.90
24011;DHT22;12217;50.792;4.372;2023-02-26T04:12:25;4.80;99.90
24011;DHT22;12217;50.792;4.372;2023-02-26T04:14:51;4.80;99.90
24011;DHT22;12217;50.792;4.372;2023-02-26T04:17:16;4.80;99.90
24011;DHT22;12217;50.792;4.372;2023-02-26T04:19:42;4.80;99.90
24011;DHT22;12217;50.792;4.372;2023-02-26T04:22:08;4.70;99.90
24011;DHT22;12217;50.792;4.372;2023-02-26T04:24:34;4.80;99.90
24011;DHT22;12217;50.792;4.372;2023-02-26T04:26:59;4.80;99.90
24011;DHT22;12217;50.792;4.372;2023-02-26T04:29:25;4.70;99.90
24011;DHT22;12217;50.792;4.372;2023-02-26T04:31:52;4.70;99.90
24011;DHT22;12217;50.792;4.372;2023-02-26T04:34:17;4.60;99.90
24011;DHT22;12217;50.792;4.372;2023-02-26T04:36:43;4.50;99.90
24011;DHT22;12217;50.792;4.372;2023-02-26T04:39:09;4.50;99.90
24011;DHT22;12217;50.792;4.372;2023-02-26T04:41:35;4.50;99.90
24011;DHT22;12217;50.792;4.372;2023-02-26T04:44:01;4.50;99.90
24011;DHT22;12217;50.792;4.372;2023-02-26T04:46:26;4.50;99.90
24011;DHT22;12217;50.792;4.372;2023-02-26T04:48:52;4.50;99.90
24011;DHT22;12217;50.792;4.372;2023-02-26T04:51:17;4.50;99.90
24011;DHT22;12217;50.792;4.372;2023-02-26T04:53:43;4.50;99.90
24011;DHT22;12217;50.792;4.372;2023-02-26T04:56:09;4.50;99.90
24011;DHT22;12217;50.792;4.372;2023-02-26T04:58:35;4.50;99.90
24011;DHT22;12217;50.792;4.372;2023-02-26T05:01:01;4.50;99.90
24011;DHT22;12217;50.792;4.372;2023-02-26T05:03:26;4.40;99.90
24011;DHT22;12217;50.792;4.372;2023-02-26T05:05:52;4.30;99.90
24011;DHT22;12217;50.792;4.372;2023-02-26T05:08:18;4.40;99.90
24011;DHT22;12217;50.792;4.372;2023-02-26T05:10:44;4.50;99.90
24011;DHT22;12217;50.792;4.372;2023-02-26T05:13:10;4.30;99.90
24011;DHT22;12217;50.792;4.372;2023-02-26T05:15:35;4.20;99.90
24011;DHT22;12217;50.792;4.372;2023-02-26T05:18:01;4.30;99.90
24011;DHT22;12217;50.792;4.372;2023-02-26T05:20:27;4.20;99.90
24011;DHT22;12217;50.792;4.372;2023-02-26T05:22:52;4.20;99.90
24011;DHT22;12217;50.792;4.372;2023-02-26T05:25:18;4.10;99.90
24011;DHT22;12217;50.792;4.372;2023-02-26T05:27:44;4.10;99.90
24011;DHT22;12217;50.792;4.372;2023-02-26T05:30:12;4.20;99.90
24011;DHT22;12217;50.792;4.372;2023-02-26T05:32:38;4.10;99.90
24011;DHT22;12217;50.792;4.372;2023-02-26T05:35:04;4.10;99.90
24011;DHT22;12217;50.792;4.372;2023-02-26T05:37:30;4.10;99.90
24011;DHT22;12217;50.792;4.372;2023-02-26T05:39:55;4.20;99.90
24011;DHT22;12217;50.792;4.372;2023-02-26T05:42:21;4.10;99.90
24011;DHT22;12217;50.792;4.372;2023-02-26T05:44:47;4.10;99.90
24011;DHT22;12217;50.792;4.372;2023-02-26T05:47:12;4.00;99.90
24011;DHT22;12217;50.792;4.372;2023-02-26T05:49:38;3.90;99.90
24011;DHT22;12217;50.792;4.372;2023-02-26T05:52:03;4.10;99.90
24011;DHT22;12217;50.792;4.372;2023-02-26T05:54:29;4.10;99.90
24011;DHT22;12217;50.792;4.372;2023-02-26T05:56:54;4.00;99.90
24011;DHT22;12217;50.792;4.372;2023-02-26T05:59:20;3.90;99.90
24011;DHT22;12217;50.792;4.372;2023-02-26T06:01:46;3.80;99.90
24011;DHT22;12217;50.792;4.372;2023-02-26T06:04:11;3.90;99.90
24011;DHT22;12217;50.792;4.372;2023-02-26T06:06:37;3.90;99.90
24011;DHT22;12217;50.792;4.372;2023-02-26T06:09:03;4.00;99.90
24011;DHT22;12217;50.792;4.372;2023-02-26T06:11:29;3.90;99.90
24011;DHT22;12217;50.792;4.372;2023-02-26T06:13:55;3.90;99.90
24011;DHT22;12217;50.792;4.372;2023-02-26T06:16:21;3.90;99.90
24011;DHT22;12217;50.792;4.372;2023-02-26T06:18:47;3.70;99.90
24011;DHT22;12217;50.792;4.372;2023-02-26T06:21:14;3.60;99.90
24011;DHT22;12217;50.792;4.372;2023-02-26T06:23:40;3.60;99.90
24011;DHT22;12217;50.792;4.372;2023-02-26T06:26:06;3.60;99.90
24011;DHT22;12217;50.792;4.372;2023-02-26T06:28:32;3.60;99.90
24011;DHT22;12217;50.792;4.372;2023-02-26T06:30:57;3.60;99.90
24011;DHT22;12217;50.792;4.372;2023-02-26T06:33:23;3.70;99.90
24011;DHT22;12217;50.792;4.372;2023-02-26T06:35:49;3.60;99.90
24011;DHT22;12217;50.792;4.372;2023-02-26T06:38:16;3.60;99.90
24011;DHT22;12217;50.792;4.372;2023-02-26T06:40:41;3.60;99.90
24011;DHT22;12217;50.792;4.372;2023-02-26T06:43:07;3.60;99.90
24011;DHT22;12217;50.792;4.372;2023-02-26T06:45:33;3.60;99.90
24011;DHT22;12217;50.792;4.372;2023-02-26T06:47:59;3.60;99.90
24011;DHT22;12217;50.792;4.372;2023-02-26T06:50:24;3.70;99.90
24011;DHT22;12217;50.792;4.372;2023-02-26T06:52:50;3.70;99.90
24011;DHT22;12217;50.792;4.372;2023-02-26T06:55:15;3.70;99.90
24011;DHT22;12217;50.792;4.372;2023-02-26T06:57:41;3.70;99.90
24011;DHT22;12217;50.792;4.372;2023-02-26T07:00:08;3.60;99.90
24011;DHT22;12217;50.792;4.372;2023-02-26T07:02:34;3.60;99.90
24011;DHT22;12217;50.792;4.372;2023-02-26T07:05:00;3.60;99.90
24011;DHT22;12217;50.792;4.372;2023-02-26T07:07:26;3.60;99.90
24011;DHT22;12217;50.792;4.372;2023-02-26T07:09:52;3.60;99.90
24011;DHT22;12217;50.792;4.372;2023-02-26T07:12:17;3.40;99.90
24011;DHT22;12217;50.792;4.372;2023-02-26T07:14:43;3.40;99.90
24011;DHT22;12217;50.792;4.372;2023-02-26T07:17:11;3.60;99.90
24011;DHT22;12217;50.792;4.372;2023-02-26T07:19:45;3.60;99.90
24011;DHT22;12217;50.792;4.372;2023-02-26T07:22:11;3.60;99.90
24011;DHT22;12217;50.792;4.372;2023-02-26T07:24:37;3.60;99.90
24011;DHT22;12217;50.792;4.372;2023-02-26T07:27:02;3.50;99.90
24011;DHT22;12217;50.792;4.372;2023-02-26T07:29:28;3.60;99.90
24011;DHT22;12217;50.792;4.372;2023-02-26T07:31:53;3.70;99.90
24011;DHT22;12217;50.792;4.372;2023-02-26T07:34:19;3.70;99.90
24011;DHT22;12217;50.792;4.372;2023-02-26T07:36:45;3.70;99.90
24011;DHT22;12217;50.792;4.372;2023-02-26T07:39:11;3.80;99.90
24011;DHT22;12217;50.792;4.372;2023-02-26T07:41:36;3.90;99.90
24011;DHT22;12217;50.792;4.372;2023-02-26T07:44:02;4.00;99.90
24011;DHT22;12217;50.792;4.372;2023-02-26T07:46:27;3.90;99.90
24011;DHT22;12217;50.792;4.372;2023-02-26T07:48:53;3.80;99.90
24011;DHT22;12217;50.792;4.372;2023-02-26T07:51:19;3.80;99.90
24011;DHT22;12217;50.792;4.372;2023-02-26T07:53:44;3.80;99.90
24011;DHT22;12217;50.792;4.372;2023-02-26T07:56:10;3.90;99.90
24011;DHT22;12217;50.792;4.372;2023-02-26T07:58:36;4.10;99.90
24011;DHT22;12217;50.792;4.372;2023-02-26T08:01:01;4.30;99.90
24011;DHT22;12217;50.792;4.372;2023-02-26T08:03:27;4.20;99.90
24011;DHT22;12217;50.792;4.372;2023-02-26T08:05:53;4.30;99.90
24011;DHT22;12217;50.792;4.372;2023-02-26T08:08:18;4.10;99.90
24011;DHT22;12217;50.792;4.372;2023-02-26T08:10:44;4.20;99.90
24011;DHT22;12217;50.792;4.372;2023-02-26T08:13:10;4.30;99.90
24011;DHT22;12217;50.792;4.372;2023-02-26T08:15:35;4.50;99.90
24011;DHT22;12217;50.792;4.372;2023-02-26T08:18:01;4.60;99.90
24011;DHT22;12217;50.792;4.372;2023-02-26T08:20:27;4.80;99.90
24011;DHT22;12217;50.792;4.372;2023-02-26T08:22:52;4.90;99.90
24011;DHT22;12217;50.792;4.372;2023-02-26T08:25:18;5.00;99.90
24011;DHT22;12217;50.792;4.372;2023-02-26T08:27:44;5.10;99.90
24011;DHT22;12217;50.792;4.372;2023-02-26T08:30:10;5.20;99.90
24011;DHT22;12217;50.792;4.372;2023-02-26T08:32:36;5.40;99.90
24011;DHT22;12217;50.792;4.372;2023-02-26T08:35:04;5.60;99.90
24011;DHT22;12217;50.792;4.372;2023-02-26T08:37:30;5.70;99.90
24011;DHT22;12217;50.792;4.372;2023-02-26T08:39:55;5.60;99.90
24011;DHT22;12217;50.792;4.372;2023-02-26T08:42:21;5.70;99.90
24011;DHT22;12217;50.792;4.372;2023-02-26T08:44:47;5.70;99.90
24011;DHT22;12217;50.792;4.372;2023-02-26T08:47:13;5.70;99.90
24011;DHT22;12217;50.792;4.372;2023-02-26T08:49:38;5.80;99.90
24011;DHT22;12217;50.792;4.372;2023-02-26T08:52:04;5.90;99.90
24011;DHT22;12217;50.792;4.372;2023-02-26T08:54:30;5.80;99.90
24011;DHT22;12217;50.792;4.372;2023-02-26T08:56:56;5.80;99.90
24011;DHT22;12217;50.792;4.372;2023-02-26T08:59:23;6.00;99.90
24011;DHT22;12217;50.792;4.372;2023-02-26T09:01:49;6.10;99.90
24011;DHT22;12217;50.792;4.372;2023-02-26T09:04:15;6.20;99.90
24011;DHT22;12217;50.792;4.372;2023-02-26T09:06:41;6.10;99.90
24011;DHT22;12217;50.792;4.372;2023-02-26T09:09:07;6.30;99.90
24011;DHT22;12217;50.792;4.372;2023-02-26T09:11:32;6.30;99.90
24011;DHT22;12217;50.792;4.372;2023-02-26T09:13:58;6.40;99.90
24011;DHT22;12217;50.792;4.372;2023-02-26T09:16:24;6.40;99.90
24011;DHT22;12217;50.792;4.372;2023-02-26T09:18:50;6.30;99.90
24011;DHT22;12217;50.792;4.372;2023-02-26T09:21:16;6.30;99.90
24011;DHT22;12217;50.792;4.372;2023-02-26T09:23:42;6.30;99.90
24011;DHT22;12217;50.792;4.372;2023-02-26T09:26:07;6.30;99.90
24011;DHT22;12217;50.792;4.372;2023-02-26T09:28:34;6.40;99.90
24011;DHT22;12217;50.792;4.372;2023-02-26T09:31:00;6.50;99.90
24011;DHT22;12217;50.792;4.372;2023-02-26T09:33:25;6.70;99.90
24011;DHT22;12217;50.792;4.372;2023-02-26T09:35:51;6.80;99.90
24011;DHT22;12217;50.792;4.372;2023-02-26T09:38:17;6.70;99.90
24011;DHT22;12217;50.792;4.372;2023-02-26T09:40:49;6.90;99.90
24011;DHT22;12217;50.792;4.372;2023-02-26T09:43:44;6.90;99.90
24011;DHT22;12217;50.792;4.372;2023-02-26T09:51:53;7.00;99.90
24011;DHT22;12217;50.792;4.372;2023-02-26T09:54:33;7.30;99.90
24011;DHT22;12217;50.792;4.372;2023-02-26T09:57:01;7.30;99.90
24011;DHT22;12217;50.792;4.372;2023-02-26T09:59:31;7.20;99.90
24011;DHT22;12217;50.792;4.372;2023-02-26T10:02:12;7.40;99.90
24011;DHT22;12217;50.792;4.372;2023-02-26T10:04:47;7.50;99.90
24011;DHT22;12217;50.792;4.372;2023-02-26T10:07:36;7.70;99.90
24011;DHT22;12217;50.792;4.372;2023-02-26T10:12:40;7.50;99.90
24011;DHT22;12217;50.792;4.372;2023-02-26T10:15:40;7.70;99.90
24011;DHT22;12217;50.792;4.372;2023-02-26T10:18:21;7.80;99.90
24011;DHT22;12217;50.792;4.372;2023-02-26T10:36:28;8.30;98.70
24011;DHT22;12217;50.792;4.372;2023-02-26T10:39:01;8.30;97.80
24011;DHT22;12217;50.792;4.372;2023-02-26T10:41:31;8.40;97.60
24011;DHT22;12217;50.792;4.372;2023-02-26T10:44:15;8.40;97.40
24011;DHT22;12217;50.792;4.372;2023-02-26T10:47:11;8.50;96.60
24011;DHT22;12217;50.792;4.372;2023-02-26T10:49:54;8.40;96.70
24011;DHT22;12217;50.792;4.372;2023-02-26T10:52:26;8.40;96.40
24011;DHT22;12217;50.792;4.372;2023-02-26T10:55:18;8.50;96.50
24011;DHT22;12217;50.792;4.372;2023-02-26T10:57:43;8.40;95.50
24011;DHT22;12217;50.792;4.372;2023-02-26T11:00:18;8.20;94.50
24011;DHT22;12217;50.792;4.372;2023-02-26T11:02:46;8.00;94.40
24011;DHT22;12217;50.792;4.372;2023-02-26T11:05:17;7.50;95.00
24011;DHT22;12217;50.792;4.372;2023-02-26T11:07:46;7.80;95.10
24011;DHT22;12217;50.792;4.372;2023-02-26T11:10:16;8.40;93.90
24011;DHT22;12217;50.792;4.372;2023-02-26T11:12:42;8.60;92.60
24011;DHT22;12217;50.792;4.372;2023-02-26T11:15:13;9.40;92.20
24011;DHT22;12217;50.792;4.372;2023-02-26T11:17:40;10.00;88.60
24011;DHT22;12217;50.792;4.372;2023-02-26T11:20:27;10.30;89.70
24011;DHT22;12217;50.792;4.372;2023-02-26T11:22:56;11.50;81.10
24011;DHT22;12217;50.792;4.372;2023-02-26T11:25:25;13.40;73.50
24011;DHT22;12217;50.792;4.372;2023-02-26T11:27:58;15.20;65.90
24011;DHT22;12217;50.792;4.372;2023-02-26T11:30:26;17.40;57.70
24011;DHT22;12217;50.792;4.372;2023-02-26T11:32:57;18.60;50.60
24011;DHT22;12217;50.792;4.372;2023-02-26T11:35:24;19.90;47.20
24011;DHT22;12217;50.792;4.372;2023-02-26T11:38:01;19.80;44.00
24011;DHT22;12217;50.792;4.372;2023-02-26T11:40:38;20.00;43.90
24011;DHT22;12217;50.792;4.372;2023-02-26T11:43:07;19.80;42.20
24011;DHT22;12217;50.792;4.372;2023-02-26T11:45:39;20.00;42.30
24011;DHT22;12217;50.792;4.372;2023-02-26T11:48:19;19.60;41.50
24011;DHT22;12217;50.792;4.372;2023-02-26T11:50:48;19.10;42.40
24011;DHT22;12217;50.792;4.372;2023-02-26T11:53:19;18.30;42.40
24011;DHT22;12217;50.792;4.372;2023-02-26T11:55:52;18.30;44.10
24011;DHT22;12217;50.792;4.372;2023-02-26T11:58:22;19.20;43.10
24011;DHT22;12217;50.792;4.372;2023-02-26T12:00:51;19.90;41.10
24011;DHT22;12217;50.792;4.372;2023-02-26T12:03:22;19.50;40.80
24011;DHT22;12217;50.792;4.372;2023-02-26T12:05:49;19.90;40.80
24011;DHT22;12217;50.792;4.372;2023-02-26T12:08:32;20.20;40.80
24011;DHT22;12217;50.792;4.372;2023-02-26T12:14:34;22.10;38.80
24011;DHT22;12217;50.792;4.372;2023-02-26T12:41:43;17.90;39.20
24011;DHT22;12217;50.792;4.372;2023-02-26T12:44:44;16.90;40.60
24011;DHT22;12217;50.792;4.372;2023-02-26T12:53:00;17.10;41.10
24011;DHT22;12217;50.792;4.372;2023-02-26T13:06:06;18.70;39.50
24011;DHT22;12217;50.792;4.372;2023-02-26T13:08:56;19.60;38.40
24011;DHT22;12217;50.792;4.372;2023-02-26T13:11:42;19.60;37.50
24011;DHT22;12217;50.792;4.372;2023-02-26T13:17:39;21.30;35.90
24011;DHT22;12217;50.792;4.372;2023-02-26T13:20:23;21.50;35.20
24011;DHT22;12217;50.792;4.372;2023-02-26T13:23:13;22.10;34.20
24011;DHT22;12217;50.792;4.372;2023-02-26T13:25:46;21.90;33.60
24011;DHT22;12217;50.792;4.372;2023-02-26T13:28:32;21.00;33.90
24011;DHT22;12217;50.792;4.372;2023-02-26T13:31:03;21.50;34.30
24011;DHT22;12217;50.792;4.372;2023-02-26T13:33:31;22.30;34.20
24011;DHT22;12217;50.792;4.372;2023-02-26T13:35:59;22.80;33.40
24011;DHT22;12217;50.792;4.372;2023-02-26T13:41:09;23.60;33.10
24011;DHT22;12217;50.792;4.372;2023-02-26T13:49:25;23.90;31.30
24011;DHT22;12217;50.792;4.372;2023-02-26T13:51:56;22.70;31.20
24011;DHT22;12217;50.792;4.372;2023-02-26T13:54:43;21.90;32.00
24011;DHT22;12217;50.792;4.372;2023-02-26T14:00:26;22.40;32.80
24011;DHT22;12217;50.792;4.372;2023-02-26T14:02:57;22.30;32.00
24011;DHT22;12217;50.792;4.372;2023-02-26T14:05:55;21.70;32.70
24011;DHT22;12217;50.792;4.372;2023-02-26T14:11:25;22.50;33.00
24011;DHT22;12217;50.792;4.372;2023-02-26T14:16:39;23.40;31.20
24011;DHT22;12217;50.792;4.372;2023-02-26T14:19:20;22.40;31.10
24011;DHT22;12217;50.792;4.372;2023-02-26T14:21:54;22.60;32.00
24011;DHT22;12217;50.792;4.372;2023-02-26T14:24:31;22.90;31.70
24011;DHT22;12217;50.792;4.372;2023-02-26T14:29:59;22.40;30.40
24011;DHT22;12217;50.792;4.372;2023-02-26T14:32:48;22.40;31.10
24011;DHT22;12217;50.792;4.372;2023-02-26T14:35:23;22.80;30.70
24011;DHT22;12217;50.792;4.372;2023-02-26T14:38:02;23.10;30.40
24011;DHT22;12217;50.792;4.372;2023-02-26T14:40:31;23.60;30.60
24011;DHT22;12217;50.792;4.372;2023-02-26T14:43:02;23.90;30.40
24011;DHT22;12217;50.792;4.372;2023-02-26T14:45:36;23.70;29.90
24011;DHT22;12217;50.792;4.372;2023-02-26T14:48:12;23.40;29.90
24011;DHT22;12217;50.792;4.372;2023-02-26T14:55:46;23.60;29.80
24011;DHT22;12217;50.792;4.372;2023-02-26T15:01:18;23.70;29.50
24011;DHT22;12217;50.792;4.372;2023-02-26T15:25:46;23.50;28.70
24011;DHT22;12217;50.792;4.372;2023-02-26T15:28:20;23.50;28.90
24011;DHT22;12217;50.792;4.372;2023-02-26T15:30:48;23.50;28.60
24011;DHT22;12217;50.792;4.372;2023-02-26T15:33:22;23.50;28.80
24011;DHT22;12217;50.792;4.372;2023-02-26T15:35:50;23.50;29.00
24011;DHT22;12217;50.792;4.372;2023-02-26T15:38:17;22.80;29.10
24011;DHT22;12217;50.792;4.372;2023-02-26T15:40:43;22.20;29.40
24011;DHT22;12217;50.792;4.372;2023-02-26T15:43:13;21.80;29.80
24011;DHT22;12217;50.792;4.372;2023-02-26T15:45:45;21.30;30.10
24011;DHT22;12217;50.792;4.372;2023-02-26T15:48:18;21.10;30.70
24011;DHT22;12217;50.792;4.372;2023-02-26T15:50:47;21.00;31.00
24011;DHT22;12217;50.792;4.372;2023-02-26T15:53:23;21.10;31.30
24011;DHT22;12217;50.792;4.372;2023-02-26T15:55:52;21.00;31.50
24011;DHT22;12217;50.792;4.372;2023-02-26T15:58:39;21.30;31.10
24011;DHT22;12217;50.792;4.372;2023-02-26T16:01:05;22.20;30.50
24011;DHT22;12217;50.792;4.372;2023-02-26T16:03:34;22.70;30.20
24011;DHT22;12217;50.792;4.372;2023-02-26T16:06:01;23.30;29.80
24011;DHT22;12217;50.792;4.372;2023-02-26T16:08:27;24.00;29.10
24011;DHT22;12217;50.792;4.372;2023-02-26T16:10:55;24.30;29.30
24011;DHT22;12217;50.792;4.372;2023-02-26T16:13:41;25.00;28.60
24011;DHT22;12217;50.792;4.372;2023-02-26T16:16:12;25.40;28.30
24011;DHT22;12217;50.792;4.372;2023-02-26T16:18:40;25.40;27.90
24011;DHT22;12217;50.792;4.372;2023-02-26T16:21:07;25.40;28.20
24011;DHT22;12217;50.792;4.372;2023-02-26T16:23:53;25.50;28.30
24011;DHT22;12217;50.792;4.372;2023-02-26T16:26:24;24.60;28.90
24011;DHT22;12217;50.792;4.372;2023-02-26T16:28:57;24.60;28.60
24011;DHT22;12217;50.792;4.372;2023-02-26T16:31:25;24.50;28.70
24011;DHT22;12217;50.792;4.372;2023-02-26T16:33:58;24.20;29.20
24011;DHT22;12217;50.792;4.372;2023-02-26T16:36:31;23.50;29.30
24011;DHT22;12217;50.792;4.372;2023-02-26T16:39:17;22.10;30.00
24011;DHT22;12217;50.792;4.372;2023-02-26T16:41:47;20.40;31.50
24011;DHT22;12217;50.792;4.372;2023-02-26T16:46:54;18.10;34.30
24011;DHT22;12217;50.792;4.372;2023-02-26T16:49:25;17.30;35.30
24011;DHT22;12217;50.792;4.372;2023-02-26T16:51:52;16.40;36.60
24011;DHT22;12217;50.792;4.372;2023-02-26T16:54:24;15.70;37.90
24011;DHT22;12217;50.792;4.372;2023-02-26T16:56:59;14.70;39.00
24011;DHT22;12217;50.792;4.372;2023-02-26T16:59:33;13.80;40.60
24011;DHT22;12217;50.792;4.372;2023-02-26T17:02:03;13.30;41.60
24011;DHT22;12217;50.792;4.372;2023-02-26T17:04:33;12.90;42.90
24011;DHT22;12217;50.792;4.372;2023-02-26T17:06:59;12.40;43.60
24011;DHT22;12217;50.792;4.372;2023-02-26T17:09:40;12.00;44.50
24011;DHT22;12217;50.792;4.372;2023-02-26T17:12:19;11.50;45.50
24011;DHT22;12217;50.792;4.372;2023-02-26T17:14:50;11.40;46.30
24011;DHT22;12217;50.792;4.372;2023-02-26T17:17:17;11.10;46.60
24011;DHT22;12217;50.792;4.372;2023-02-26T17:19:43;10.90;47.20
24011;DHT22;12217;50.792;4.372;2023-02-26T17:22:16;10.80;48.00
24011;DHT22;12217;50.792;4.372;2023-02-26T17:24:44;10.60;48.30
24011;DHT22;12217;50.792;4.372;2023-02-26T17:27:15;10.50;48.80
24011;DHT22;12217;50.792;4.372;2023-02-26T17:29:43;10.50;49.60
24011;DHT22;12217;50.792;4.372;2023-02-26T17:32:21;10.30;49.20
24011;DHT22;12217;50.792;4.372;2023-02-26T17:34:48;10.20;49.90
24011;DHT22;12217;50.792;4.372;2023-02-26T17:37:15;10.20;50.50
24011;DHT22;12217;50.792;4.372;2023-02-26T17:39:41;10.10;50.80
24011;DHT22;12217;50.792;4.372;2023-02-26T17:42:12;9.90;51.20
24011;DHT22;12217;50.792;4.372;2023-02-26T17:44:37;9.90;51.50
24011;DHT22;12217;50.792;4.372;2023-02-26T17:47:03;9.60;51.60
24011;DHT22;12217;50.792;4.372;2023-02-26T17:49:29;9.60;51.90
24011;DHT22;12217;50.792;4.372;2023-02-26T17:51:55;9.60;52.30
24011;DHT22;12217;50.792;4.372;2023-02-26T17:54:20;9.50;52.40
24011;DHT22;12217;50.792;4.372;2023-02-26T17:56:46;9.40;52.60
24011;DHT22;12217;50.792;4.372;2023-02-26T17:59:15;9.40;53.00
24011;DHT22;12217;50.792;4.372;2023-02-26T18:01:40;9.40;53.00
24011;DHT22;12217;50.792;4.372;2023-02-26T18:04:06;9.30;53.60
24011;DHT22;12217;50.792;4.372;2023-02-26T18:06:35;9.30;53.70
24011;DHT22;12217;50.792;4.372;2023-02-26T18:09:03;9.40;54.00
24011;DHT22;12217;50.792;4.372;2023-02-26T18:11:31;9.30;54.10
24011;DHT22;12217;50.792;4.372;2023-02-26T18:13:57;9.30;54.40
24011;DHT22;12217;50.792;4.372;2023-02-26T18:16:32;9.10;54.40
24011;DHT22;12217;50.792;4.372;2023-02-26T18:18:59;9.10;54.90
24011;DHT22;12217;50.792;4.372;2023-02-26T18:21:25;9.10;54.80
24011;DHT22;12217;50.792;4.372;2023-02-26T18:23:51;9.00;55.30
24011;DHT22;12217;50.792;4.372;2023-02-26T18:26:18;8.90;56.10
24011;DHT22;12217;50.792;4.372;2023-02-26T18:28:48;9.00;56.00
24011;DHT22;12217;50.792;4.372;2023-02-26T18:31:15;8.90;56.60
24011;DHT22;12217;50.792;4.372;2023-02-26T18:33:42;8.90;56.80
24011;DHT22;12217;50.792;4.372;2023-02-26T18:36:18;8.80;56.80
24011;DHT22;12217;50.792;4.372;2023-02-26T18:38:45;8.80;57.20
24011;DHT22;12217;50.792;4.372;2023-02-26T18:41:10;8.80;57.80
24011;DHT22;12217;50.792;4.372;2023-02-26T18:43:36;8.80;58.00
24011;DHT22;12217;50.792;4.372;2023-02-26T18:46:02;8.70;58.30
24011;DHT22;12217;50.792;4.372;2023-02-26T18:48:27;8.70;58.60
24011;DHT22;12217;50.792;4.372;2023-02-26T18:50:53;8.60;59.30
24011;DHT22;12217;50.792;4.372;2023-02-26T18:53:21;8.50;59.70
24011;DHT22;12217;50.792;4.372;2023-02-26T18:55:52;8.40;60.10
24011;DHT22;12217;50.792;4.372;2023-02-26T18:58:18;8.40;61.60